createdAt,value
2023-04-06T00:05:36.601Z,19.65
2023-04-06T00:08:04.171Z,16.77
2023-04-06T00:10:32.040Z,18.92
2023-04-06T00:13:00.810Z,17.58
2023-04-06T00:15:28.642Z,16.42
2023-04-06T00:17:57.771Z,13.52
2023-04-06T00:20:26.095Z,13.07
2023-04-06T00:22:56.691Z,12.80
2023-04-06T00:25:24.733Z,17.98
2023-04-06T00:27:52.621Z,19.13
2023-04-06T00:30:20.901Z,19.02
2023-04-06T00:32:49.449Z,18.20
2023-04-06T00:35:18.809Z,17.88
2023-04-06T00:37:49.393Z,24.00
2023-04-06T00:40:21.327Z,18.85
2023-04-06T00:42:53.240Z,17.30
2023-04-06T00:45:21.328Z,19.00
2023-04-06T00:47:51.750Z,18.65
2023-04-06T00:50:19.891Z,18.42
2023-04-06T00:52:48.950Z,17.58
2023-04-06T00:57:52.434Z,23.92
2023-04-06T01:00:20.679Z,18.38
2023-04-06T01:02:56.424Z,18.30
2023-04-06T01:05:32.003Z,24.02
2023-04-06T01:08:04.138Z,17.85
2023-04-06T01:10:32.820Z,19.73
2023-04-06T01:13:12.669Z,20.13
2023-04-06T01:15:55.053Z,18.98
2023-04-06T01:18:30.922Z,16.73
2023-04-06T01:21:27.854Z,15.48
2023-04-06T01:24:22.496Z,13.13
2023-04-06T01:27:19.847Z,16.63
2023-04-06T01:30:20.573Z,13.77
2023-04-06T01:32:59.334Z,16.27
2023-04-06T01:35:45.852Z,14.63
2023-04-06T01:38:21.746Z,18.05
2023-04-06T01:40:51.129Z,13.98
2023-04-06T01:43:26.591Z,16.38
2023-04-06T01:46:09.558Z,15.48
2023-04-06T01:48:41.650Z,15.45
2023-04-06T01:51:19.913Z,18.17
2023-04-06T01:54:08.325Z,16.85
2023-04-06T01:57:18.326Z,16.27
2023-04-06T01:59:52.056Z,20.35
2023-04-06T02:02:43.061Z,18.63
2023-04-06T02:05:24.665Z,18.45
2023-04-06T02:07:57.806Z,16.33
2023-04-06T02:10:33.568Z,19.10
2023-04-06T02:13:06.853Z,15.60
2023-04-06T02:15:35.612Z,19.67
2023-04-06T02:18:03.613Z,15.30
2023-04-06T02:20:31.468Z,19.73
2023-04-06T02:23:01.755Z,15.13
2023-04-06T02:25:29.517Z,19.83
2023-04-06T02:27:57.133Z,16.35
2023-04-06T02:30:24.991Z,16.00
2023-04-06T02:32:52.944Z,19.20
2023-04-06T02:35:21.402Z,21.13
2023-04-06T02:37:55.739Z,18.63
2023-04-06T02:40:23.409Z,18.98
2023-04-06T02:42:51.023Z,20.85
2023-04-06T02:45:25.889Z,20.27
2023-04-06T02:47:53.813Z,18.55
2023-04-06T02:50:21.846Z,20.63
2023-04-06T02:52:57.539Z,22.23
2023-04-06T02:55:25.691Z,26.52
2023-04-06T02:57:53.516Z,20.08
2023-04-06T03:00:26.461Z,23.92
2023-04-06T03:02:54.430Z,23.52
2023-04-06T03:05:22.795Z,23.95
2023-04-06T03:07:51.096Z,19.27
2023-04-06T03:10:26.841Z,22.00
2023-04-06T03:12:54.618Z,20.75
2023-04-06T03:15:34.605Z,19.48
2023-04-06T03:18:13.355Z,24.15
2023-04-06T03:20:48.405Z,24.25
2023-04-06T03:23:22.006Z,22.50
2023-04-06T03:25:54.399Z,24.27
2023-04-06T03:28:22.973Z,26.95
2023-04-06T03:30:55.310Z,26.40
2023-04-06T03:33:39.502Z,23.05
2023-04-06T03:36:09.090Z,25.08
2023-04-06T03:38:41.578Z,23.55
2023-04-06T03:41:13.317Z,26.25
2023-04-06T03:43:47.267Z,26.17
2023-04-06T03:46:15.869Z,23.00
2023-04-06T03:48:51.191Z,24.83
2023-04-06T03:51:21.908Z,26.92
2023-04-06T03:53:49.681Z,23.98
2023-04-06T03:56:18.788Z,27.65
2023-04-06T03:58:47.557Z,26.23
2023-04-06T04:01:15.168Z,25.13
2023-04-06T04:03:43.465Z,30.20
2023-04-06T04:06:11.366Z,30.60
2023-04-06T04:08:41.565Z,30.85
2023-04-06T04:11:09.624Z,27.83
2023-04-06T04:13:37.334Z,32.75
2023-04-06T04:16:07.804Z,26.85
2023-04-06T04:18:37.882Z,31.77
2023-04-06T04:21:07.379Z,29.20
2023-04-06T04:23:36.733Z,28.30
2023-04-06T04:26:05.268Z,30.77
2023-04-06T04:28:33.915Z,26.77
2023-04-06T04:31:01.535Z,27.20
2023-04-06T04:33:32.629Z,35.63
2023-04-06T04:36:03.351Z,32.22
2023-04-06T04:38:38.180Z,36.15
2023-04-06T04:41:06.065Z,30.38
2023-04-06T04:43:36.184Z,31.90
2023-04-06T04:46:05.744Z,31.77
2023-04-06T04:48:40.900Z,29.10
2023-04-06T04:51:09.700Z,27.48
2023-04-06T04:54:07.081Z,34.22
2023-04-06T04:56:35.637Z,35.97
2023-04-06T04:59:22.516Z,34.55
2023-04-06T05:01:57.834Z,29.73
2023-04-06T05:04:38.869Z,31.92
2023-04-06T05:07:09.834Z,35.75
2023-04-06T05:09:40.573Z,30.52
2023-04-06T05:12:09.225Z,32.78
2023-04-06T05:14:47.641Z,32.55
2023-04-06T05:17:18.890Z,33.63
2023-04-06T05:19:49.024Z,33.22
2023-04-06T05:22:23.235Z,32.05
2023-04-06T05:25:03.026Z,32.15
2023-04-06T05:27:31.978Z,35.50
2023-04-06T05:30:06.644Z,34.10
2023-04-06T05:32:43.861Z,33.95
2023-04-06T05:35:13.179Z,33.10
2023-04-06T05:37:49.589Z,37.78
2023-04-06T05:40:18.831Z,34.03
2023-04-06T05:42:48.149Z,31.20
2023-04-06T05:45:18.752Z,37.97
2023-04-06T05:47:52.184Z,36.03
2023-04-06T05:50:28.528Z,35.45
2023-04-06T05:53:00.072Z,35.10
2023-04-06T05:55:33.200Z,39.78
2023-04-06T05:58:27.943Z,34.78
2023-04-06T06:01:00.733Z,35.53
2023-04-06T06:03:36.839Z,42.50
2023-04-06T06:06:05.769Z,33.72
2023-04-06T06:08:51.185Z,36.50
2023-04-06T06:11:19.886Z,30.17
2023-04-06T06:13:52.381Z,34.10
2023-04-06T06:16:21.264Z,36.10
2023-04-06T06:18:50.332Z,33.45
2023-04-06T06:21:19.168Z,41.67
2023-04-06T06:23:51.696Z,40.60
2023-04-06T06:26:23.061Z,34.95
2023-04-06T06:28:51.865Z,33.35
2023-04-06T06:31:23.752Z,34.92
2023-04-06T06:33:52.817Z,38.88
2023-04-06T06:36:21.640Z,45.95
2023-04-06T06:38:51.504Z,39.58
2023-04-06T06:41:21.842Z,36.00
2023-04-06T06:43:50.946Z,36.50
2023-04-06T06:46:19.959Z,34.20
2023-04-06T06:48:50.839Z,38.90
2023-04-06T06:51:19.840Z,42.65
2023-04-06T06:53:49.010Z,39.03
2023-04-06T06:56:18.556Z,38.30
2023-04-06T06:58:47.281Z,35.90
2023-04-06T07:01:15.720Z,39.80
2023-04-06T07:03:44.700Z,37.97
2023-04-06T07:06:12.540Z,34.38
2023-04-06T07:08:41.604Z,36.30
2023-04-06T07:11:10.357Z,35.63
2023-04-06T07:13:38.176Z,39.47
2023-04-06T07:16:06.157Z,38.90
2023-04-06T07:18:36.037Z,49.72
2023-04-06T07:21:04.558Z,38.33
2023-04-06T07:23:32.685Z,32.63
2023-04-06T07:26:00.852Z,47.13
2023-04-06T07:28:28.494Z,33.80
2023-04-06T07:30:56.995Z,39.15
2023-04-06T07:33:24.765Z,34.67
2023-04-06T07:35:58.517Z,30.45
2023-04-06T07:38:26.701Z,37.45
2023-04-06T07:40:54.753Z,34.53
2023-04-06T07:43:22.786Z,35.53
2023-04-06T07:45:50.437Z,34.42
2023-04-06T07:48:20.376Z,41.38
2023-04-06T07:50:48.630Z,32.08
2023-04-06T07:53:18.905Z,42.40
2023-04-06T07:55:48.555Z,31.50
2023-04-06T07:58:16.939Z,30.42
2023-04-06T08:00:45.312Z,30.65
2023-04-06T08:03:13.077Z,49.70
2023-04-06T08:05:40.798Z,35.92
2023-04-06T08:08:08.391Z,36.83
2023-04-06T08:10:36.205Z,33.20
2023-04-06T08:13:04.853Z,33.08
2023-04-06T08:15:32.882Z,34.92
2023-04-06T08:18:01.274Z,32.70
2023-04-06T08:20:29.410Z,31.17
2023-04-06T08:22:57.154Z,32.08
2023-04-06T08:25:26.340Z,35.33
2023-04-06T08:27:55.122Z,34.75
2023-04-06T08:30:25.528Z,34.58
2023-04-06T08:32:53.377Z,38.53
2023-04-06T08:35:21.203Z,36.05
2023-04-06T08:37:50.148Z,36.15
2023-04-06T08:40:19.598Z,36.38
2023-04-06T08:42:51.584Z,33.13
2023-04-06T08:48:10.882Z,34.00
2023-04-06T08:50:41.049Z,31.77
2023-04-06T08:53:09.357Z,37.75
2023-04-06T08:55:37.604Z,30.25
2023-04-06T08:58:06.149Z,33.90
2023-04-06T09:00:34.250Z,52.22
2023-04-06T09:03:02.064Z,32.55
2023-04-06T09:05:30.966Z,45.97
2023-04-06T09:07:58.851Z,32.00
2023-04-06T09:10:28.639Z,33.63
2023-04-06T09:13:04.927Z,34.60
2023-04-06T09:15:32.672Z,33.95
2023-04-06T09:18:00.822Z,32.10
2023-04-06T09:20:29.376Z,40.47
2023-04-06T09:22:57.508Z,32.58
2023-04-06T09:25:27.721Z,34.65
2023-04-06T09:28:03.487Z,41.05
2023-04-06T09:30:34.093Z,38.00
2023-04-06T09:33:02.263Z,34.58
2023-04-06T09:35:32.459Z,33.42
2023-04-06T09:38:23.382Z,34.08
2023-04-06T09:41:01.246Z,33.08
2023-04-06T09:43:30.456Z,39.67
2023-04-06T09:46:04.371Z,37.13
2023-04-06T09:48:33.005Z,35.03
2023-04-06T09:51:02.777Z,38.13
2023-04-06T09:53:33.117Z,38.88
2023-04-06T09:56:04.627Z,36.42
2023-04-06T09:58:36.043Z,37.63
2023-04-06T10:01:05.596Z,41.40
2023-04-06T10:03:38.809Z,37.30
2023-04-06T10:06:10.424Z,37.13
2023-04-06T10:08:41.824Z,38.40
2023-04-06T10:11:12.708Z,35.85
2023-04-06T10:13:40.573Z,37.90
2023-04-06T10:16:08.491Z,36.40
2023-04-06T10:18:36.369Z,30.63
2023-04-06T10:21:14.114Z,40.28
2023-04-06T10:23:52.520Z,37.92
2023-04-06T10:26:24.140Z,38.55
2023-04-06T10:28:52.295Z,38.95
2023-04-06T10:31:30.793Z,33.30
2023-04-06T10:34:03.898Z,32.25
2023-04-06T10:36:35.742Z,34.90
2023-04-06T10:39:04.803Z,34.38
2023-04-06T10:41:58.755Z,28.13
2023-04-06T10:44:26.531Z,31.08
2023-04-06T10:46:58.018Z,35.17
2023-04-06T10:49:27.856Z,35.85
2023-04-06T10:51:56.391Z,28.08
2023-04-06T10:54:28.751Z,28.50
2023-04-06T10:56:57.632Z,36.58
2023-04-06T10:59:26.473Z,31.85
2023-04-06T11:01:56.155Z,30.08
2023-04-06T11:04:24.743Z,32.20
2023-04-06T11:06:52.584Z,29.77
2023-04-06T11:09:30.373Z,27.10
2023-04-06T11:11:58.462Z,33.40
2023-04-06T11:14:27.900Z,26.23
2023-04-06T11:16:56.219Z,36.58
2023-04-06T11:19:24.524Z,28.27
2023-04-06T11:21:52.317Z,30.20
2023-04-06T11:24:21.348Z,20.88
2023-04-06T11:26:53.010Z,23.70
2023-04-06T11:29:22.117Z,23.55
2023-04-06T11:31:50.938Z,22.08
2023-04-06T11:34:20.150Z,21.90
2023-04-06T11:36:49.222Z,21.33
2023-04-06T11:39:27.651Z,18.75
2023-04-06T11:41:56.733Z,19.65
2023-04-06T11:44:36.671Z,18.25
2023-04-06T11:47:07.391Z,20.05
2023-04-06T11:49:38.759Z,22.40
2023-04-06T11:52:18.537Z,20.90
2023-04-06T11:54:50.067Z,21.13
2023-04-06T11:57:18.753Z,13.88
2023-04-06T11:59:51.211Z,19.15
2023-04-06T12:02:20.552Z,14.68
2023-04-06T12:04:51.377Z,15.75
2023-04-06T12:07:22.421Z,18.23
2023-04-06T12:09:49.953Z,12.98
2023-04-06T12:12:20.742Z,15.00
2023-04-06T12:14:49.443Z,23.60
2023-04-06T12:17:19.564Z,15.77
2023-04-06T12:19:49.092Z,14.15
2023-04-06T12:22:19.946Z,14.32
2023-04-06T12:24:48.432Z,14.48
2023-04-06T12:27:17.360Z,11.35
2023-04-06T12:29:45.021Z,16.77
2023-04-06T12:32:14.386Z,10.95
2023-04-06T12:34:42.301Z,12.93
2023-04-06T12:37:12.506Z,12.38
2023-04-06T12:39:41.885Z,15.82
2023-04-06T12:42:23.419Z,12.35
2023-04-06T12:44:50.907Z,13.30
2023-04-06T12:47:19.274Z,15.55
2023-04-06T12:49:48.384Z,14.77
2023-04-06T12:52:18.486Z,12.70
2023-04-06T12:54:51.305Z,15.38
2023-04-06T12:57:19.676Z,15.57
2023-04-06T12:59:51.516Z,16.95
2023-04-06T13:02:22.509Z,13.68
2023-04-06T13:04:51.305Z,13.50
2023-04-06T13:07:22.248Z,14.52
2023-04-06T13:09:51.065Z,14.82
2023-04-06T13:12:20.893Z,15.85
2023-04-06T13:14:52.133Z,18.30
2023-04-06T13:17:20.117Z,14.98
2023-04-06T13:19:48.955Z,17.17
2023-04-06T13:22:17.374Z,19.48
2023-04-06T13:24:45.039Z,16.77
2023-04-06T13:27:12.902Z,21.15
2023-04-06T13:29:41.733Z,18.15
2023-04-06T13:32:11.464Z,18.10
2023-04-06T13:34:39.123Z,20.05
2023-04-06T13:37:07.843Z,21.55
2023-04-06T13:39:36.468Z,19.30
2023-04-06T13:42:04.305Z,21.15
2023-04-06T13:44:32.123Z,20.67
2023-04-06T13:46:59.801Z,19.48
2023-04-06T13:49:27.915Z,19.55
2023-04-06T13:51:59.727Z,17.80
2023-04-06T13:54:29.218Z,20.60
2023-04-06T13:56:57.792Z,22.02
2023-04-06T13:59:25.769Z,20.80
2023-04-06T14:01:53.783Z,24.73
2023-04-06T14:04:21.549Z,20.27
2023-04-06T14:06:49.754Z,23.15
2023-04-06T14:09:19.179Z,20.73
2023-04-06T14:11:49.602Z,21.35
2023-04-06T14:14:19.457Z,21.92
2023-04-06T14:16:49.692Z,22.60
2023-04-06T14:19:19.185Z,24.35
2023-04-06T14:21:48.631Z,23.17
2023-04-06T14:24:17.995Z,26.98
2023-04-06T14:26:45.446Z,23.92
2023-04-06T14:29:13.152Z,23.77
2023-04-06T14:31:43.065Z,22.05
2023-04-06T14:34:11.522Z,20.83
2023-04-06T14:36:40.652Z,23.55
2023-04-06T14:39:10.909Z,24.77
2023-04-06T14:41:39.276Z,20.50
2023-04-06T14:44:07.468Z,22.27
2023-04-06T14:46:35.475Z,21.02
2023-04-06T14:49:21.984Z,20.10
2023-04-06T14:52:01.768Z,18.23
2023-04-06T14:54:29.852Z,19.83
2023-04-06T14:56:57.972Z,18.25
2023-04-06T14:59:25.850Z,21.08
2023-04-06T15:01:55.106Z,22.33
2023-04-06T15:04:23.088Z,20.27
2023-04-06T15:06:54.287Z,20.95
2023-04-06T15:09:22.946Z,22.40
2023-04-06T15:11:51.006Z,24.10
2023-04-06T15:14:21.951Z,23.95
2023-04-06T15:16:49.897Z,23.08
2023-04-06T15:19:20.881Z,24.17
2023-04-06T15:21:51.592Z,24.38
2023-04-06T15:24:19.296Z,24.58
2023-04-06T15:26:49.301Z,26.33
2023-04-06T15:31:49.439Z,23.48
2023-04-06T15:34:21.639Z,29.70
2023-04-06T15:36:51.992Z,26.63
2023-04-06T15:39:25.617Z,30.40
2023-04-06T15:41:53.358Z,26.33
2023-04-06T15:44:27.704Z,27.95
2023-04-06T15:46:56.043Z,29.27
2023-04-06T15:49:23.653Z,31.00
2023-04-06T15:51:52.687Z,30.15
2023-04-06T15:54:21.458Z,31.98
2023-04-06T15:56:50.696Z,32.33
2023-04-06T15:59:21.483Z,31.52
2023-04-06T16:04:17.924Z,33.72
2023-04-06T16:06:45.778Z,32.97
2023-04-06T16:09:13.479Z,38.80
2023-04-06T16:11:41.537Z,34.50
2023-04-06T16:14:09.357Z,32.42
2023-04-06T16:16:37.477Z,37.83
2023-04-06T16:19:05.111Z,33.75
2023-04-06T16:21:33.349Z,37.90
2023-04-06T16:24:03.648Z,29.92
2023-04-06T16:26:32.135Z,32.72
2023-04-06T16:29:00.208Z,31.52
2023-04-06T16:31:31.422Z,31.45
2023-04-06T16:33:59.252Z,31.85
2023-04-06T16:36:28.552Z,31.35
2023-04-06T16:38:57.439Z,33.08
2023-04-06T16:41:25.530Z,29.60
2023-04-06T16:43:54.147Z,33.13
2023-04-06T16:46:21.863Z,30.70
2023-04-06T16:48:49.546Z,29.70
2023-04-06T16:51:18.907Z,33.03
2023-04-06T16:53:50.024Z,29.52
2023-04-06T16:56:18.491Z,28.02
2023-04-06T16:58:48.267Z,35.55
2023-04-06T17:01:22.990Z,29.63
2023-04-06T17:03:50.929Z,28.75
2023-04-06T17:06:28.024Z,30.23
2023-04-06T17:08:55.763Z,27.90
2023-04-06T17:11:28.596Z,27.08
2023-04-06T17:14:02.160Z,27.13
2023-04-06T17:16:30.449Z,26.15
2023-04-06T17:19:02.754Z,25.90
2023-04-06T17:21:30.996Z,25.35
2023-04-06T17:23:58.659Z,28.48
2023-04-06T17:26:26.414Z,27.23
2023-04-06T17:28:59.780Z,22.70
2023-04-06T17:31:28.950Z,26.13
2023-04-06T17:33:56.608Z,26.05
2023-04-06T17:36:24.716Z,23.75
2023-04-06T17:38:53.023Z,29.63
2023-04-06T17:41:21.664Z,28.17
2023-04-06T17:43:51.690Z,25.75
2023-04-06T17:50:09.207Z,24.17
2023-04-06T17:52:37.691Z,23.38
2023-04-06T17:55:06.011Z,25.17
2023-04-06T17:57:33.597Z,22.98
2023-04-06T18:00:01.428Z,22.85
2023-04-06T18:02:29.243Z,23.70
2023-04-06T18:04:56.951Z,23.30
2023-04-06T18:07:24.582Z,26.45
2023-04-06T18:09:52.314Z,19.80
2023-04-06T18:12:19.968Z,19.40
2023-04-06T18:14:48.592Z,18.58
2023-04-06T18:17:17.268Z,19.17
2023-04-06T18:19:45.146Z,19.75
2023-04-06T18:22:13.178Z,19.15
2023-04-06T18:24:42.711Z,19.90
2023-04-06T18:27:13.245Z,19.02
2023-04-06T18:29:41.161Z,20.00
2023-04-06T18:32:08.733Z,19.05
2023-04-06T18:34:37.661Z,20.02
2023-04-06T18:37:06.102Z,20.05
2023-04-06T18:39:34.246Z,18.20
2023-04-06T18:42:03.032Z,19.83
2023-04-06T18:44:32.326Z,19.45
2023-04-06T18:47:00.647Z,19.83
2023-04-06T18:49:28.251Z,20.83
2023-04-06T18:51:57.676Z,16.83
2023-04-06T18:54:25.788Z,20.90
2023-04-06T18:56:53.817Z,19.38
2023-04-06T18:59:21.648Z,18.23
2023-04-06T19:01:53.954Z,19.60
2023-04-06T19:04:22.550Z,18.20
2023-04-06T19:06:50.928Z,17.50
2023-04-06T19:09:20.267Z,17.05
2023-04-06T19:11:48.770Z,19.00
2023-04-06T19:14:17.326Z,20.98
2023-04-06T19:16:52.405Z,19.10
2023-04-06T19:19:20.874Z,18.20
2023-04-06T19:21:51.923Z,15.73
2023-04-06T19:24:19.919Z,16.30
2023-04-06T19:26:48.533Z,18.95
2023-04-06T19:29:19.225Z,16.75
2023-04-06T19:31:47.165Z,16.05
2023-04-06T19:34:18.759Z,17.45
2023-04-06T19:36:48.976Z,15.43
2023-04-06T19:39:20.949Z,17.23
2023-04-06T19:41:50.462Z,14.20
2023-04-06T19:44:18.746Z,15.95
2023-04-06T19:46:49.924Z,17.40
2023-04-06T19:49:19.837Z,15.10
2023-04-06T19:51:50.619Z,18.10
2023-04-06T19:54:22.257Z,18.63
2023-04-06T19:56:53.229Z,16.38
2023-04-06T19:59:24.310Z,17.55
2023-04-06T20:01:52.312Z,17.27
2023-04-06T20:04:20.664Z,19.60
2023-04-06T20:06:50.178Z,17.35
2023-04-06T20:09:18.655Z,18.75
2023-04-06T20:11:51.796Z,19.95
2023-04-06T20:14:24.952Z,22.67
2023-04-06T20:16:53.308Z,20.48
2023-04-06T20:19:21.041Z,21.30
2023-04-06T20:21:49.477Z,22.35
2023-04-06T20:24:21.423Z,24.13
2023-04-06T20:26:52.997Z,24.20
2023-04-06T20:29:21.250Z,24.33
2023-04-06T20:31:49.942Z,25.27
2023-04-06T20:34:19.978Z,22.25
2023-04-06T20:36:51.089Z,24.40
2023-04-06T20:39:19.969Z,28.20
2023-04-06T20:41:48.750Z,23.40
2023-04-06T20:44:17.745Z,24.45
2023-04-06T20:46:45.992Z,25.45
2023-04-06T20:49:19.053Z,27.05
2023-04-06T20:51:52.618Z,23.30
2023-04-06T20:54:20.991Z,25.33
2023-04-06T20:56:52.324Z,25.92
2023-04-06T20:59:20.193Z,26.52
2023-04-06T21:01:49.363Z,30.52
2023-04-06T21:04:18.826Z,29.00
2023-04-06T21:06:47.340Z,28.67
2023-04-06T21:09:15.209Z,25.88
2023-04-06T21:11:43.265Z,27.70
2023-04-06T21:14:11.094Z,27.55
2023-04-06T21:16:39.715Z,29.23
2023-04-06T21:19:08.248Z,29.10
2023-04-06T21:21:35.939Z,27.08
2023-04-06T21:24:03.849Z,29.15
2023-04-06T21:26:31.503Z,29.65
2023-04-06T21:28:59.237Z,32.35
2023-04-06T21:31:26.976Z,33.15
2023-04-06T21:33:54.799Z,30.70
2023-04-06T21:36:22.610Z,32.05
2023-04-06T21:38:51.106Z,34.83
2023-04-06T21:41:20.989Z,35.35
2023-04-06T21:43:51.781Z,33.72
2023-04-06T21:46:20.018Z,34.78
2023-04-06T21:48:48.571Z,35.70
2023-04-06T21:51:23.482Z,33.65
2023-04-06T21:53:53.549Z,33.95
2023-04-06T21:56:26.337Z,31.80
2023-04-06T21:58:54.401Z,32.90
2023-04-06T22:01:22.088Z,37.55
2023-04-06T22:03:53.204Z,39.15
2023-04-06T22:06:23.127Z,42.95
2023-04-06T22:08:50.747Z,47.25
2023-04-06T22:11:23.018Z,46.67
2023-04-06T22:13:50.880Z,49.63
2023-04-06T22:16:19.683Z,46.42
2023-04-06T22:18:48.475Z,49.65
2023-04-06T22:21:15.990Z,52.17
2023-04-06T22:23:44.702Z,53.42
2023-04-06T22:26:12.703Z,55.97
2023-04-06T22:28:40.343Z,55.85
2023-04-06T22:31:07.886Z,55.35
2023-04-06T22:33:35.687Z,54.75
2023-04-06T22:36:03.270Z,56.22
2023-04-06T22:38:31.060Z,58.17
2023-04-06T22:40:58.747Z,59.55
2023-04-06T22:43:26.348Z,58.53
2023-04-06T22:45:55.532Z,64.47
2023-04-06T22:48:23.483Z,68.13
2023-04-06T22:50:51.415Z,69.68
2023-04-06T22:53:19.575Z,70.60
2023-04-06T22:55:50.754Z,67.25
2023-04-06T22:58:21.951Z,73.63
2023-04-06T23:00:50.025Z,68.72
2023-04-06T23:03:18.823Z,65.90
2023-04-06T23:05:48.359Z,63.05
2023-04-06T23:08:17.374Z,62.28
2023-04-06T23:10:45.079Z,62.97
2023-04-06T23:13:13.020Z,62.90
2023-04-06T23:15:44.003Z,65.50
2023-04-06T23:18:12.275Z,60.45
2023-04-06T23:20:40.579Z,60.05
2023-04-06T23:23:08.406Z,54.83
2023-04-06T23:25:36.047Z,151.82
2023-04-06T23:28:03.937Z,143.73
2023-04-06T23:30:31.885Z,157.98
2023-04-06T23:33:01.258Z,132.75
2023-04-06T23:35:29.057Z,116.25
2023-04-06T23:37:56.765Z,41.25
2023-04-06T23:40:25.413Z,45.00
2023-04-06T23:42:52.982Z,48.47
2023-04-06T23:45:20.848Z,52.50
2023-04-06T23:47:52.698Z,45.20
2023-04-06T23:50:21.425Z,40.90
2023-04-06T23:52:49.769Z,39.17
2023-04-06T23:55:18.573Z,39.28
2023-04-06T23:57:47.436Z,37.83
